createdAt,value
2022-12-09T00:01:07.588Z,99645.31
2022-12-09T00:03:36.803Z,99656.06
2022-12-09T00:06:09.292Z,99645.66
2022-12-09T00:08:37.520Z,99651.03
2022-12-09T00:11:07.570Z,99654.72
2022-12-09T00:13:36.484Z,99658.09
2022-12-09T00:16:07.979Z,99658.09
2022-12-09T00:18:37.078Z,99655.72
2022-12-09T00:21:16.355Z,99657.22
2022-12-09T00:23:44.311Z,99656.38
2022-12-09T00:26:14.442Z,99660.75
2022-12-09T00:28:42.538Z,99656.38
2022-12-09T00:31:15.013Z,99658.09
2022-12-09T00:33:43.388Z,99661.75
2022-12-09T00:36:14.660Z,99654.72
2022-12-09T00:38:43.189Z,99659.06
2022-12-09T00:41:14.141Z,99656.38
2022-12-09T00:43:43.253Z,99656.72
2022-12-09T00:46:12.001Z,99664.44
2022-12-09T00:48:40.716Z,99663.44
2022-12-09T00:51:10.205Z,99661.75
2022-12-09T00:53:39.126Z,99653.06
2022-12-09T00:56:08.417Z,99666.44
2022-12-09T00:58:37.822Z,99668.81
2022-12-09T01:01:06.469Z,99665.09
2022-12-09T01:03:34.667Z,99663.44
2022-12-09T01:06:08.273Z,99663.44
2022-12-09T01:08:38.988Z,99661.75
2022-12-09T01:11:12.179Z,99645.50
2022-12-09T01:13:41.818Z,99657.22
2022-12-09T01:16:16.727Z,99663.44
2022-12-09T01:18:45.060Z,99663.44
2022-12-09T01:21:13.456Z,99663.44
2022-12-09T01:23:41.860Z,99668.81
2022-12-09T01:26:10.628Z,99663.78
2022-12-09T01:28:39.770Z,99669.78
2022-12-09T01:31:11.163Z,99665.28
2022-12-09T01:33:39.437Z,99674.16
2022-12-09T01:36:10.041Z,99670.81
2022-12-09T01:38:38.549Z,99668.81
2022-12-09T01:41:07.141Z,99675.84
2022-12-09T01:43:35.649Z,99666.94
2022-12-09T01:46:04.106Z,99672.47
2022-12-09T01:48:36.275Z,99675.84
2022-12-09T01:51:08.891Z,99667.44
2022-12-09T01:53:40.663Z,99678.50
2022-12-09T01:56:13.860Z,99674.16
2022-12-09T01:58:42.510Z,99681.19
2022-12-09T02:01:10.557Z,99674.16
2022-12-09T02:03:40.037Z,99681.19
2022-12-09T02:06:08.611Z,99680.34
2022-12-09T02:08:37.169Z,99694.59
2022-12-09T02:11:15.483Z,99684.88
2022-12-09T02:13:48.614Z,99681.19
2022-12-09T02:16:20.115Z,99685.72
2022-12-09T02:18:57.174Z,99686.56
2022-12-09T02:21:32.366Z,99684.88
2022-12-09T02:24:06.067Z,99688.38
2022-12-09T02:26:40.799Z,99690.25
2022-12-09T02:29:32.471Z,99677.84
2022-12-09T02:32:19.978Z,99684.88
2022-12-09T02:34:56.708Z,99683.19
2022-12-09T02:37:28.568Z,99691.25
2022-12-09T02:40:02.207Z,99690.59
2022-12-09T02:42:35.793Z,99688.88
2022-12-09T02:45:06.967Z,99689.56
2022-12-09T02:47:40.730Z,99693.91
2022-12-09T02:50:14.698Z,99695.78
2022-12-09T02:52:45.043Z,99695.63
2022-12-09T02:55:16.502Z,99700.97
2022-12-09T02:57:44.660Z,99696.59
2022-12-09T03:00:15.835Z,99697.63
2022-12-09T03:02:47.172Z,99697.63
2022-12-09T03:05:23.234Z,99699.28
2022-12-09T03:08:01.156Z,99712.69
2022-12-09T03:10:35.380Z,99710.00
2022-12-09T03:13:09.555Z,99706.34
2022-12-09T03:15:42.341Z,99701.31
2022-12-09T03:18:15.488Z,99710.00
2022-12-09T03:20:49.771Z,99709.19
2022-12-09T03:23:21.482Z,99703.81
2022-12-09T03:25:53.320Z,99714.56
2022-12-09T03:28:25.000Z,99711.69
2022-12-09T03:30:54.604Z,99710.84
2022-12-09T03:33:24.688Z,99710.84
2022-12-09T03:35:57.745Z,99715.38
2022-12-09T03:38:30.043Z,99713.69
2022-12-09T03:41:05.330Z,99709.19
2022-12-09T03:43:38.853Z,99713.69
2022-12-09T03:46:07.184Z,99710.00
2022-12-09T03:48:35.695Z,99714.56
2022-12-09T03:51:09.858Z,99713.69
2022-12-09T03:53:43.607Z,99713.69
2022-12-09T03:56:18.967Z,99712.03
2022-12-09T03:58:49.716Z,99713.69
2022-12-09T04:01:18.412Z,99708.66
2022-12-09T04:03:50.207Z,99719.91
2022-12-09T04:06:20.385Z,99715.38
2022-12-09T04:08:48.640Z,99724.44
2022-12-09T04:11:17.151Z,99723.56
2022-12-09T04:13:45.111Z,99721.75
2022-12-09T04:16:13.319Z,99715.38
2022-12-09T04:18:41.617Z,99722.59
2022-12-09T04:21:11.076Z,99723.41
2022-12-09T04:23:43.173Z,99720.72
2022-12-09T04:26:15.509Z,99717.72
2022-12-09T04:28:44.083Z,99689.50
2022-12-09T04:31:13.227Z,99726.41
2022-12-09T04:33:42.284Z,99726.94
2022-12-09T04:36:13.440Z,99727.78
2022-12-09T04:38:44.156Z,99733.16
2022-12-09T04:41:13.308Z,99734.97
2022-12-09T04:43:42.111Z,99742.00
2022-12-09T04:46:13.676Z,99735.84
2022-12-09T04:48:42.478Z,99734.81
2022-12-09T04:51:11.363Z,99739.16
2022-12-09T04:53:39.569Z,99734.81
2022-12-09T04:56:12.831Z,99741.84
2022-12-09T04:58:41.650Z,99741.03
2022-12-09T05:01:11.451Z,99739.50
2022-12-09T05:03:40.572Z,99741.84
2022-12-09T05:06:11.756Z,99742.69
2022-12-09T05:08:40.548Z,99747.22
2022-12-09T05:11:10.734Z,99746.41
2022-12-09T05:13:39.115Z,99740.00
2022-12-09T05:16:15.644Z,99751.75
2022-12-09T05:18:45.666Z,99752.56
2022-12-09T05:21:16.071Z,99753.44
2022-12-09T05:23:45.116Z,99750.91
2022-12-09T05:26:16.918Z,99749.25
2022-12-09T05:28:45.680Z,99750.91
2022-12-09T05:31:17.195Z,99749.25
2022-12-09T05:33:45.827Z,99756.28
2022-12-09T05:36:17.058Z,99753.59
2022-12-09T05:38:45.780Z,99758.09
2022-12-09T05:41:15.931Z,99759.97
2022-12-09T05:43:44.147Z,99761.63
2022-12-09T05:46:12.985Z,99764.31
2022-12-09T05:48:41.707Z,99760.63
2022-12-09T05:51:13.660Z,99759.28
2022-12-09T05:53:41.687Z,99768.66
2022-12-09T05:56:10.014Z,99767.84
2022-12-09T05:58:39.760Z,99762.81
2022-12-09T06:01:09.464Z,99767.00
2022-12-09T06:03:38.513Z,99767.00
2022-12-09T06:06:08.425Z,99765.34
2022-12-09T06:08:37.103Z,99762.66
2022-12-09T06:11:05.895Z,99768.81
2022-12-09T06:13:34.110Z,99767.00
2022-12-09T06:16:06.193Z,99767.84
2022-12-09T06:18:34.698Z,99758.94
2022-12-09T06:21:06.902Z,99759.97
2022-12-09T06:23:36.820Z,99772.38
2022-12-09T06:26:06.272Z,99754.41
2022-12-09T06:28:35.387Z,99767.00
2022-12-09T06:31:05.109Z,99762.66
2022-12-09T06:36:21.377Z,99767.00
2022-12-09T06:38:49.582Z,99775.03
2022-12-09T06:41:17.944Z,99777.72
2022-12-09T06:43:46.152Z,99783.09
2022-12-09T06:46:17.777Z,99786.50
2022-12-09T06:48:46.954Z,99784.50
2022-12-09T06:51:15.655Z,99792.19
2022-12-09T06:53:44.247Z,99789.34
2022-12-09T06:56:14.914Z,99792.88
2022-12-09T06:58:44.596Z,99794.53
2022-12-09T07:01:17.248Z,99793.72
2022-12-09T07:03:47.980Z,99794.53
2022-12-09T07:06:25.103Z,99794.53
2022-12-09T07:08:54.865Z,99798.22
2022-12-09T07:11:23.586Z,99797.22
2022-12-09T07:13:52.229Z,99798.22
2022-12-09T07:16:22.906Z,99803.59
2022-12-09T07:18:51.409Z,99799.91
2022-12-09T07:21:22.140Z,99799.91
2022-12-09T07:23:51.171Z,99801.94
2022-12-09T07:26:20.648Z,99799.91
2022-12-09T07:28:51.360Z,99810.63
2022-12-09T07:31:23.475Z,99814.03
2022-12-09T07:33:53.530Z,99816.72
2022-12-09T07:36:23.138Z,99814.88
2022-12-09T07:38:56.532Z,99824.75
2022-12-09T07:41:25.233Z,99817.69
2022-12-09T07:43:54.388Z,99826.72
2022-12-09T07:46:26.057Z,99823.38
2022-12-09T07:48:55.174Z,99830.97
2022-12-09T07:51:24.499Z,99822.22
2022-12-09T07:53:54.062Z,99821.06
2022-12-09T07:56:24.780Z,99831.81
2022-12-09T07:58:55.261Z,99837.16
2022-12-09T08:01:27.678Z,99839.16
2022-12-09T08:03:58.181Z,99835.34
2022-12-09T08:06:28.483Z,99839.69
2022-12-09T08:09:00.035Z,99849.28
2022-12-09T08:11:30.941Z,99848.25
2022-12-09T08:14:05.661Z,99846.59
2022-12-09T08:16:39.298Z,99828.06
2022-12-09T08:19:08.052Z,99859.16
2022-12-09T08:21:36.933Z,99860.97
2022-12-09T08:24:07.749Z,99855.78
2022-12-09T08:26:37.489Z,99858.31
2022-12-09T08:29:10.044Z,99869.03
2022-12-09T08:31:42.695Z,99879.75
2022-12-09T08:34:12.234Z,99869.03
2022-12-09T08:36:40.827Z,99879.75
2022-12-09T08:39:09.434Z,99877.09
2022-12-09T08:41:39.987Z,99879.44
2022-12-09T08:44:11.361Z,99873.09
2022-12-09T08:46:43.468Z,99875.78
2022-12-09T08:49:12.002Z,99859.78
2022-12-09T08:51:41.254Z,99889.84
2022-12-09T08:54:11.410Z,99884.47
2022-12-09T08:56:40.199Z,99877.78
2022-12-09T08:59:08.470Z,99885.50
2022-12-09T09:01:37.301Z,99889.84
2022-12-09T09:04:09.884Z,99888.19
2022-12-09T09:06:41.464Z,99884.81
2022-12-09T09:09:12.550Z,99881.13
2022-12-09T09:11:41.428Z,99890.16
2022-12-09T09:14:12.506Z,99877.78
2022-12-09T09:16:44.289Z,99887.50
2022-12-09T09:19:18.515Z,99898.91
2022-12-09T09:21:47.156Z,99890.16
2022-12-09T09:24:18.196Z,99889.03
2022-12-09T09:26:47.773Z,99895.22
2022-12-09T09:29:18.260Z,99892.69
2022-12-09T09:31:48.706Z,99893.53
2022-12-09T09:34:19.208Z,99898.91
2022-12-09T09:36:50.592Z,99900.91
2022-12-09T09:39:19.327Z,99913.34
2022-12-09T09:41:53.491Z,99904.28
2022-12-09T09:44:26.631Z,99901.59
2022-12-09T09:46:56.566Z,99905.13
2022-12-09T09:49:35.508Z,99907.81
2022-12-09T09:52:08.702Z,99906.97
2022-12-09T09:54:37.256Z,99902.59
2022-12-09T09:57:14.117Z,99901.75
2022-12-09T09:59:54.973Z,99909.63
2022-12-09T10:02:53.355Z,99915.00
2022-12-09T10:05:29.275Z,99916.19
2022-12-09T10:08:05.016Z,99915.00
2022-12-09T10:10:45.559Z,99922.03
2022-12-09T10:13:30.914Z,99925.75
2022-12-09T10:16:06.583Z,99920.38
2022-12-09T10:18:40.445Z,99915.34
2022-12-09T10:21:17.185Z,99921.88
2022-12-09T10:23:47.161Z,99924.06
2022-12-09T10:26:20.978Z,99928.41
2022-12-09T10:28:54.239Z,99899.47
2022-12-09T10:31:22.779Z,99935.63
2022-12-09T10:33:51.454Z,99940.16
2022-12-09T10:36:29.397Z,99946.34
2022-12-09T10:39:02.340Z,99949.88
2022-12-09T10:41:59.150Z,99942.84
2022-12-09T10:44:29.049Z,99945.53
2022-12-09T10:47:03.222Z,99951.72
2022-12-09T10:49:32.995Z,99956.28
2022-12-09T10:52:05.283Z,99945.53
2022-12-09T10:54:37.920Z,99950.91
2022-12-09T10:57:24.524Z,99945.38
2022-12-09T11:00:02.044Z,99948.88
2022-12-09T11:02:32.805Z,99949.88
2022-12-09T11:05:23.392Z,99948.88
2022-12-09T11:07:54.669Z,99943.84
2022-12-09T11:10:25.755Z,99947.91
2022-12-09T11:13:05.477Z,99948.88
2022-12-09T11:15:38.997Z,99953.41
2022-12-09T11:18:09.612Z,99952.56
2022-12-09T11:20:38.702Z,99946.34
2022-12-09T11:23:17.023Z,99918.59
2022-12-09T11:25:54.747Z,99957.94
2022-12-09T11:28:29.224Z,99941.78
2022-12-09T11:33:52.052Z,99952.38
2022-12-09T11:36:23.238Z,99964.25
2022-12-09T11:39:08.108Z,99955.50
2022-12-09T11:41:53.758Z,99957.50
2022-12-09T11:44:27.736Z,99947.44
2022-12-09T11:46:59.698Z,99964.56
2022-12-09T11:49:29.714Z,99963.69
2022-12-09T11:52:07.374Z,99966.53
2022-12-09T11:54:45.055Z,99961.88
2022-12-09T11:57:23.140Z,99959.19
2022-12-09T11:59:56.596Z,99966.53
2022-12-09T12:02:34.018Z,99975.28
2022-12-09T12:05:07.834Z,99980.50
2022-12-09T12:07:43.209Z,99973.28
2022-12-09T12:10:18.953Z,99969.63
2022-12-09T12:13:00.423Z,99980.34
2022-12-09T12:15:39.090Z,99966.94
2022-12-09T12:18:14.660Z,99978.66
2022-12-09T12:20:58.155Z,99984.03
2022-12-09T12:23:40.619Z,99987.69
2022-12-09T12:26:15.256Z,99994.75
2022-12-09T12:29:07.463Z,99982.03
2022-12-09T12:32:05.360Z,99986.72
2022-12-09T12:34:45.260Z,99989.72
2022-12-09T12:37:32.306Z,99987.19
2022-12-09T12:40:09.676Z,99984.66
2022-12-09T12:43:06.572Z,99992.00
2022-12-09T12:46:05.074Z,99983.63
2022-12-09T12:48:43.368Z,99979.94
2022-12-09T12:51:21.908Z,99989.00
2022-12-09T12:53:58.109Z,99987.28
2022-12-09T12:56:35.161Z,99998.00
2022-12-09T12:59:13.120Z,99998.00
2022-12-09T13:01:53.314Z,99999.72
2022-12-09T13:04:25.417Z,99986.94
2022-12-09T13:07:02.069Z,99995.72
2022-12-09T13:09:40.371Z,99992.31
2022-12-09T13:12:14.394Z,99999.91
2022-12-09T13:14:53.491Z,99995.72
2022-12-09T13:17:26.695Z,100002.44
2022-12-09T13:19:59.853Z,100010.31
2022-12-09T13:22:34.255Z,100012.84
2022-12-09T13:25:23.623Z,100011.16
2022-12-09T13:27:57.196Z,100012.00
2022-12-09T13:30:36.212Z,100007.47
2022-12-09T13:33:23.034Z,99994.03
2022-12-09T13:35:57.193Z,100008.47
2022-12-09T13:38:28.396Z,100005.81
2022-12-09T13:40:56.625Z,100018.19
2022-12-09T13:43:27.589Z,100016.53
2022-12-09T13:45:59.174Z,100022.56
2022-12-09T13:48:47.836Z,99995.31
2022-12-09T13:51:17.731Z,100025.25
2022-12-09T13:53:50.792Z,100019.88
2022-12-09T13:56:30.546Z,100022.41
2022-12-09T13:59:26.739Z,100026.94
2022-12-09T14:02:01.479Z,100024.97
2022-12-09T14:04:32.263Z,100025.97
2022-12-09T14:07:10.427Z,100033.00
2022-12-09T14:09:48.907Z,100027.63
2022-12-09T14:12:55.581Z,100028.50
2022-12-09T14:15:38.787Z,100023.28
2022-12-09T14:18:32.747Z,100033.84
2022-12-09T14:21:34.423Z,100038.50
2022-12-09T14:24:42.474Z,100035.69
2022-12-09T14:27:16.203Z,100014.63
2022-12-09T14:29:50.500Z,100046.41
2022-12-09T14:32:23.420Z,100033.13
2022-12-09T14:35:06.126Z,100043.03
2022-12-09T14:37:45.141Z,100043.34
2022-12-09T14:40:53.061Z,100043.69
2022-12-09T14:43:48.451Z,100036.63
2022-12-09T14:46:25.579Z,100051.03
2022-12-09T14:48:57.703Z,100056.69
2022-12-09T14:51:31.913Z,100053.19
2022-12-09T14:54:03.244Z,100060.41
2022-12-09T14:56:33.557Z,100064.09
2022-12-09T14:59:06.617Z,100059.53
2022-12-09T15:01:50.196Z,100065.75
2022-12-09T15:04:41.537Z,100020.31
2022-12-09T15:07:17.082Z,100065.75
2022-12-09T15:09:51.783Z,100060.72
2022-12-09T15:12:22.175Z,100063.22
2022-12-09T15:14:57.177Z,100061.03
2022-12-09T15:17:28.898Z,100068.75
2022-12-09T15:20:01.009Z,100076.81
2022-12-09T15:22:33.475Z,100076.81
2022-12-09T15:25:03.176Z,100083.84
2022-12-09T15:27:31.571Z,100087.53
2022-12-09T15:29:59.523Z,100071.44
2022-12-09T15:32:29.308Z,100083.84
2022-12-09T15:35:15.973Z,100086.69
2022-12-09T15:37:46.303Z,100083.34
2022-12-09T15:40:19.503Z,100081.31
2022-12-09T15:42:50.578Z,100084.16
2022-12-09T15:45:22.529Z,100086.16
2022-12-09T15:47:54.764Z,100088.84
2022-12-09T15:50:27.697Z,100091.53
2022-12-09T15:53:01.900Z,100096.91
2022-12-09T15:55:36.757Z,100102.25
2022-12-09T15:58:09.176Z,100096.19
2022-12-09T16:00:40.328Z,100098.88
2022-12-09T16:03:09.160Z,100099.72
2022-12-09T16:05:42.218Z,100098.88
2022-12-09T16:08:12.094Z,100101.56
2022-12-09T16:10:47.235Z,100098.88
2022-12-09T16:13:17.334Z,100114.97
2022-12-09T16:15:50.043Z,100103.22
2022-12-09T16:18:24.095Z,100102.56
2022-12-09T16:21:19.811Z,100107.94
2022-12-09T16:23:52.862Z,100120.34
2022-12-09T16:26:26.190Z,100124.03
2022-12-09T16:28:56.737Z,100118.66
2022-12-09T16:31:24.917Z,100112.22
2022-12-09T16:33:53.038Z,100124.03
2022-12-09T16:36:25.260Z,100129.38
2022-12-09T16:39:27.992Z,100134.75
2022-12-09T16:41:58.804Z,100131.38
2022-12-09T16:44:30.992Z,100103.03
2022-12-09T16:47:13.919Z,100145.47
2022-12-09T16:49:44.295Z,100140.13
2022-12-09T16:52:14.120Z,100137.59
2022-12-09T16:54:44.715Z,100141.25
2022-12-09T16:57:14.464Z,100135.06
2022-12-09T16:59:43.071Z,100139.56
2022-12-09T17:02:22.467Z,100135.06
2022-12-09T17:04:51.926Z,100138.72
2022-12-09T17:07:19.911Z,100144.09
2022-12-09T17:09:49.272Z,100144.09
2022-12-09T17:12:17.276Z,100152.13
2022-12-09T17:14:45.263Z,100151.16
2022-12-09T17:17:13.601Z,100154.81
2022-12-09T17:19:42.122Z,100151.16
2022-12-09T17:22:10.306Z,100151.97
2022-12-09T17:24:38.740Z,100148.63
2022-12-09T17:27:08.056Z,100157.34
2022-12-09T17:29:36.901Z,100157.34
2022-12-09T17:32:05.327Z,100153.84
2022-12-09T17:34:33.379Z,100163.72
2022-12-09T17:37:01.749Z,100153.84
2022-12-09T17:39:30.860Z,100158.50
2022-12-09T17:41:58.795Z,100160.16
2022-12-09T17:44:28.288Z,100160.16
2022-12-09T17:46:56.240Z,100161.19
2022-12-09T17:49:24.474Z,100163.84
2022-12-09T17:51:52.533Z,100170.91
2022-12-09T17:54:20.467Z,100167.53
2022-12-09T17:56:48.539Z,100170.91
2022-12-09T17:59:18.097Z,100177.97
2022-12-09T18:01:47.495Z,100171.91
2022-12-09T18:04:16.447Z,100162.81
2022-12-09T18:06:46.111Z,100185.63
2022-12-09T18:09:16.343Z,100185.31
2022-12-09T18:11:44.531Z,100178.28
2022-12-09T18:14:12.797Z,100197.03
2022-12-09T18:16:40.899Z,100190.69
2022-12-09T18:19:15.057Z,100189.00
2022-12-09T18:21:43.570Z,100201.41
2022-12-09T18:24:11.717Z,100198.72
2022-12-09T18:26:42.050Z,100196.03
2022-12-09T18:29:11.108Z,100201.41
2022-12-09T18:31:39.569Z,100204.09
2022-12-09T18:34:07.899Z,100195.19
2022-12-09T18:36:37.800Z,100205.09
2022-12-09T18:39:06.477Z,100205.09
2022-12-09T18:41:35.425Z,100207.78
2022-12-09T18:44:05.357Z,100205.09
2022-12-09T18:46:36.428Z,100214.97
2022-12-09T18:49:08.396Z,100210.47
2022-12-09T18:51:39.162Z,100205.09
2022-12-09T18:54:08.099Z,100179.81
2022-12-09T18:56:37.055Z,100215.81
2022-12-09T18:59:07.394Z,100221.19
2022-12-09T19:01:39.372Z,100232.72
2022-12-09T19:04:09.781Z,100228.22
2022-12-09T19:06:41.284Z,100227.50
2022-12-09T19:09:11.427Z,100228.53
2022-12-09T19:11:41.031Z,100214.34
2022-12-09T19:14:10.415Z,100235.25
2022-12-09T19:16:39.217Z,100236.97
2022-12-09T19:19:10.412Z,100235.97
2022-12-09T19:21:40.722Z,100244.41
2022-12-09T19:24:13.811Z,100245.06
2022-12-09T19:26:42.843Z,100251.00
2022-12-09T19:29:11.592Z,100247.59
2022-12-09T19:31:42.057Z,100255.50
2022-12-09T19:34:15.067Z,100256.91
2022-12-09T19:36:45.565Z,100255.91
2022-12-09T19:39:14.877Z,100256.91
2022-12-09T19:41:43.955Z,100252.22
2022-12-09T19:44:15.374Z,100253.06
2022-12-09T19:46:46.794Z,100248.56
2022-12-09T19:49:16.652Z,100252.91
2022-12-09T19:51:47.132Z,100252.91
2022-12-09T19:54:16.555Z,100247.69
2022-12-09T19:56:45.236Z,100245.72
2022-12-09T19:59:13.981Z,100243.84
2022-12-09T20:01:44.312Z,100254.59
2022-12-09T20:04:47.065Z,100215.50
2022-12-09T20:07:07.829Z,100252.59
2022-12-09T20:09:36.240Z,100245.53
2022-12-09T20:12:04.755Z,100248.91
2022-12-09T20:14:32.744Z,100253.28
2022-12-09T20:17:00.911Z,100245.53
2022-12-09T20:19:29.067Z,100266.69
2022-12-09T20:21:57.889Z,100264.75
2022-12-09T20:24:30.482Z,100221.19
2022-12-09T20:26:58.700Z,100272.91
2022-12-09T20:29:27.631Z,100276.59
2022-12-09T20:31:56.991Z,100279.13
2022-12-09T20:34:26.269Z,100289.88
2022-12-09T20:36:54.375Z,100296.94
2022-12-09T20:39:22.698Z,100279.75
2022-12-09T20:41:52.131Z,100296.06
2022-12-09T20:44:23.255Z,100300.59
2022-12-09T20:46:53.362Z,100310.34
2022-12-09T20:49:26.241Z,100309.63
2022-12-09T20:51:54.812Z,100314.16
2022-12-09T20:54:22.833Z,100309.91
2022-12-09T20:56:53.131Z,100307.22
2022-12-09T20:59:21.371Z,100309.25
2022-12-09T21:01:50.663Z,100317.28
2022-12-09T21:04:18.798Z,100313.91
2022-12-09T21:06:47.080Z,100311.06
2022-12-09T21:09:18.809Z,100322.97
2022-12-09T21:11:47.645Z,100327.63
2022-12-09T21:14:19.174Z,100325.25
2022-12-09T21:16:50.360Z,100332.31
2022-12-09T21:19:25.096Z,100335.97
2022-12-09T21:21:54.591Z,100336.28
2022-12-09T21:24:24.309Z,100346.69
2022-12-09T21:26:55.426Z,100339.09
2022-12-09T21:29:31.311Z,100345.03
2022-12-09T21:32:00.764Z,100350.69
2022-12-09T21:34:28.887Z,100341.94
2022-12-09T21:36:56.843Z,100352.66
2022-12-09T21:39:24.798Z,100350.97
2022-12-09T21:41:53.509Z,100343.09
2022-12-09T21:44:22.461Z,100347.59
2022-12-09T21:46:54.137Z,100357.50
2022-12-09T21:49:24.617Z,100347.59
2022-12-09T21:51:52.631Z,100357.50
2022-12-09T21:54:20.577Z,100353.81
2022-12-09T21:56:48.505Z,100351.28
2022-12-09T21:59:19.010Z,100354.66
2022-12-09T22:01:47.299Z,100352.97
2022-12-09T22:04:17.563Z,100348.59
2022-12-09T22:06:47.452Z,100356.66
2022-12-09T22:09:15.748Z,100361.16
2022-12-09T22:11:43.705Z,100367.38
2022-12-09T22:14:12.313Z,100368.38
2022-12-09T22:16:42.445Z,100362.31
2022-12-09T22:19:13.831Z,100361.31
2022-12-09T22:21:43.477Z,100360.34
2022-12-09T22:24:12.961Z,100376.44
2022-12-09T22:26:43.426Z,100327.13
2022-12-09T22:29:13.373Z,100376.44
2022-12-09T22:31:42.763Z,100372.03
2022-12-09T22:34:13.705Z,100367.66
2022-12-09T22:36:44.136Z,100376.72
2022-12-09T22:39:14.721Z,100364.88
2022-12-09T22:41:43.829Z,100378.41
2022-12-09T22:44:14.697Z,100380.06
2022-12-09T22:46:43.226Z,100384.63
2022-12-09T22:49:13.302Z,100389.13
2022-12-09T22:51:43.457Z,100394.50
2022-12-09T22:54:11.868Z,100392.81
2022-12-09T22:56:41.953Z,100389.13
2022-12-09T22:59:10.692Z,100392.81
2022-12-09T23:01:39.028Z,100390.13
2022-12-09T23:04:08.895Z,100394.78
2022-12-09T23:06:38.705Z,100399.16
2022-12-09T23:09:14.549Z,100398.19
2022-12-09T23:11:42.829Z,100401.81
2022-12-09T23:14:10.872Z,100363.28
2022-12-09T23:16:39.051Z,100396.75
2022-12-09T23:19:07.484Z,100391.41
2022-12-09T23:21:37.719Z,100395.06
2022-12-09T23:24:11.437Z,100402.13
2022-12-09T23:26:41.400Z,100398.75
2022-12-09T23:29:13.641Z,100399.44
2022-12-09T23:31:41.924Z,100393.09
2022-12-09T23:34:11.534Z,100397.63
2022-12-09T23:36:41.085Z,100361.59
2022-12-09T23:39:12.432Z,100400.44
2022-12-09T23:41:42.170Z,100413.00
2022-12-09T23:44:11.805Z,100416.53
2022-12-09T23:46:40.602Z,100412.84
2022-12-09T23:49:08.847Z,100413.84
2022-12-09T23:51:39.644Z,100421.91
2022-12-09T23:54:10.909Z,100420.06
2022-12-09T23:56:44.200Z,100422.75
2022-12-09T23:59:13.840Z,100422.75
